Pleasant Valley, Iowa
Current Conditions -  °F | °C
As of 9:52 AM on Monday 26 Jan 2015 (Local Time) from KDVN Reporting Station
Light Snow Light Snow  
Wind Chill: 11°   Ceiling: 1000
Heat Index: 21°   Visibility: 0.75mi
Dew Point: 18°   Wind: 9mph
Humidity: 88%   Direction: 170°S
Pressure: 29.93"   Gusts: NA
Location:  41.57°N, 90.42°W
Report Text: KDVN 261552Z AUTO 17008KT 3/4SM -SN BR VV010 M06/M08 A2993 RMK AO2 SLP147 P0003 T10611078
Loading
Personal Weather Stations






























Interactive Weather Map New forecast layout! Learn more

10-Day Weather Forecast

Advertisements
Track Severe Weather on mobile